createdAt,value
2017-06-11T00:06:09.979Z,0
2017-06-11T00:16:23.916Z,0
2017-06-11T00:26:38.297Z,0
2017-06-11T00:36:53.697Z,0
2017-06-11T00:47:08.367Z,0
2017-06-11T00:57:23.263Z,0
2017-06-11T01:07:38.265Z,0
2017-06-11T01:17:53.564Z,0
2017-06-11T01:28:08.089Z,0
2017-06-11T01:38:23.007Z,0
2017-06-11T01:48:37.974Z,0
2017-06-11T01:58:53.725Z,0
2017-06-11T02:09:08.832Z,0
2017-06-11T02:19:23.454Z,0
2017-06-11T02:29:38.913Z,8
2017-06-11T02:39:53.166Z,20
2017-06-11T02:50:08.781Z,72
2017-06-11T03:00:23.014Z,196
2017-06-11T03:10:38.570Z,432
2017-06-11T03:20:54.233Z,772
2017-06-11T03:31:08.692Z,1244
2017-06-11T03:41:24.348Z,1932
2017-06-11T03:51:39.938Z,2332
2017-06-11T04:01:54.391Z,2308
2017-06-11T04:12:08.921Z,4376
2017-06-11T04:22:24.087Z,6140
2017-06-11T04:32:38.907Z,6644
2017-06-11T04:42:52.924Z,8012
2017-06-11T04:53:08.222Z,8240
2017-06-11T05:03:23.778Z,11876
2017-06-11T05:13:37.782Z,11380
2017-06-11T05:23:52.874Z,12436
2017-06-11T05:34:08.460Z,14148
2017-06-11T05:44:23.038Z,13400
2017-06-11T05:54:37.233Z,11096
2017-06-11T06:04:52.976Z,15184
2017-06-11T06:15:08.789Z,14368
2017-06-11T06:25:23.194Z,17024
2017-06-11T06:35:37.022Z,21056
2017-06-11T06:45:50.976Z,25216
2017-06-11T06:56:05.844Z,24896
2017-06-11T07:06:20.455Z,24992
2017-06-11T07:16:34.925Z,60640
2017-06-11T07:26:50.671Z,48736
2017-06-11T07:37:05.004Z,39488
2017-06-11T07:47:18.986Z,66144
2017-06-11T07:57:34.310Z,60960
2017-06-11T08:07:48.702Z,59584
2017-06-11T08:18:03.845Z,74880
2017-06-11T08:28:18.571Z,82688
2017-06-11T08:38:33.057Z,74016
2017-06-11T08:48:48.393Z,78848
2017-06-11T08:59:02.416Z,97024
2017-06-11T09:09:16.979Z,68000
2017-06-11T09:19:32.700Z,60608
2017-06-11T09:29:48.470Z,61600
2017-06-11T09:40:04.102Z,60800
2017-06-11T09:50:19.747Z,66944
2017-06-11T10:00:34.194Z,70368
2017-06-11T10:10:49.252Z,87040
2017-06-11T10:21:04.034Z,59520
2017-06-11T10:31:19.130Z,69504
2017-06-11T10:41:34.353Z,82624
2017-06-11T10:51:49.666Z,64000
2017-06-11T11:02:03.637Z,104768
2017-06-11T11:12:17.796Z,91616
2017-06-11T11:22:32.771Z,55264
2017-06-11T11:32:47.141Z,76896
2017-06-11T11:43:01.242Z,65120
2017-06-11T11:53:15.836Z,97024
2017-06-11T12:03:30.305Z,57504
2017-06-11T12:13:44.979Z,53376
2017-06-11T12:23:59.307Z,61120
2017-06-11T12:34:13.739Z,90240
2017-06-11T12:44:29.253Z,49120
2017-06-11T12:54:44.688Z,49152
2017-06-11T13:05:00.507Z,31808
2017-06-11T13:15:14.896Z,29632
2017-06-11T13:25:28.890Z,32064
2017-06-11T13:35:44.640Z,27776
2017-06-11T13:45:58.746Z,25504
2017-06-11T13:56:14.075Z,34944
2017-06-11T14:06:28.466Z,17504
2017-06-11T14:16:43.528Z,15768
2017-06-11T14:26:57.873Z,11640
2017-06-11T14:37:12.428Z,11924
2017-06-11T14:47:28.055Z,12284
2017-06-11T14:57:42.241Z,15648
2017-06-11T15:07:56.171Z,21120
2017-06-11T15:18:10.599Z,12412
2017-06-11T15:28:24.734Z,30912
2017-06-11T15:38:39.787Z,36256
2017-06-11T15:48:54.380Z,16448
2017-06-11T15:59:09.685Z,20704
2017-06-11T16:09:24.988Z,14884
2017-06-11T16:19:40.343Z,16736
2017-06-11T16:29:54.969Z,14804
2017-06-11T16:40:10.834Z,17184
2017-06-11T16:50:25.801Z,14212
2017-06-11T17:00:40.820Z,7036
2017-06-11T17:10:56.090Z,10292
2017-06-11T17:21:10.320Z,12784
2017-06-11T17:31:25.862Z,10132
2017-06-11T17:41:40.040Z,8508
2017-06-11T17:51:53.934Z,1580
2017-06-11T18:02:08.658Z,3336
2017-06-11T18:12:23.424Z,4944
2017-06-11T18:22:37.297Z,8596
2017-06-11T18:32:51.291Z,3472
2017-06-11T18:43:05.549Z,2840
2017-06-11T18:53:20.477Z,5308
2017-06-11T19:03:35.339Z,1516
2017-06-11T19:13:50.884Z,1400
2017-06-11T19:24:05.367Z,468
2017-06-11T19:34:20.388Z,268
2017-06-11T19:44:34.350Z,92
2017-06-11T19:54:48.604Z,56
2017-06-11T20:05:03.684Z,24
2017-06-11T20:15:17.536Z,20
2017-06-11T20:25:31.400Z,4
2017-06-11T20:35:45.684Z,0
2017-06-11T20:45:59.582Z,0
2017-06-11T20:56:14.034Z,0
2017-06-11T21:06:28.606Z,0
2017-06-11T21:16:44.328Z,0
2017-06-11T21:26:58.766Z,0
2017-06-11T21:37:13.775Z,0
2017-06-11T21:47:28.040Z,0
2017-06-11T21:57:43.199Z,0
2017-06-11T22:07:58.517Z,0
2017-06-11T22:18:12.860Z,0
2017-06-11T22:28:28.163Z,0
2017-06-11T22:38:43.427Z,0
2017-06-11T22:48:58.791Z,0
2017-06-11T22:59:14.415Z,0
2017-06-11T23:09:29.656Z,0
2017-06-11T23:19:44.448Z,0
2017-06-11T23:29:58.268Z,0
2017-06-11T23:40:13.927Z,0
2017-06-11T23:50:29.623Z,0
